Old Town, Maine
Current Conditions -  °F | °C
As of 11:53 PM on Thursday 30 Oct 2014 (Local Time) from KBGR Reporting Station
Few Clouds Few Clouds  
Wind Chill: 34°   Ceiling: Unl
Heat Index: 34°   Visibility: 10mi
Dew Point: 32°   Wind: 3mph
Humidity: 92%   Direction: 250°WSW
Pressure: 29.98"   Gusts: NA
Location:  44.94°N, 68.65°W
Report Text: KBGR 310353Z 25003KT 10SM FEW070 01/00 A2998 RMK AO2 SLP154 T00110000
Loading
Personal Weather Stations






























Interactive Weather Map
Tropical Storm Tracking
New forecast layout! Learn more

10-Day Weather Forecast

Advertisements
Track Severe Weather on mobile